sensor_id;sensor_type;location;lat;lon;timestamp;pressure;altitude;pressure_sealevel;temperature;humidity
35291;BME280;21411;50.024;19.220;2023-04-04T00:00:09;99598.64;;;0.20;100.00
35291;BME280;21411;50.024;19.220;2023-04-04T00:02:56;99597.93;;;0.22;100.00
35291;BME280;21411;50.024;19.220;2023-04-04T00:05:23;99598.99;;;0.21;100.00
35291;BME280;21411;50.024;19.220;2023-04-04T00:07:49;99595.85;;;0.21;100.00
35291;BME280;21411;50.024;19.220;2023-04-04T00:10:16;99594.48;;;0.19;100.00
35291;BME280;21411;50.024;19.220;2023-04-04T00:12:42;99592.59;;;0.17;100.00
35291;BME280;21411;50.024;19.220;2023-04-04T00:15:10;99588.96;;;0.15;100.00
35291;BME280;21411;50.024;19.220;2023-04-04T00:17:36;99588.44;;;0.15;100.00
35291;BME280;21411;50.024;19.220;2023-04-04T00:20:03;99588.64;;;0.13;100.00
35291;BME280;21411;50.024;19.220;2023-04-04T00:22:30;99585.00;;;0.11;100.00
35291;BME280;21411;50.024;19.220;2023-04-04T00:24:56;99585.71;;;0.10;100.00
35291;BME280;21411;50.024;19.220;2023-04-04T00:27:23;99585.05;;;0.07;100.00
35291;BME280;21411;50.024;19.220;2023-04-04T00:29:49;99583.34;;;0.05;100.00
35291;BME280;21411;50.024;19.220;2023-04-04T00:32:16;99586.84;;;0.04;100.00
35291;BME280;21411;50.024;19.220;2023-04-04T00:34:42;99589.33;;;0.00;100.00
35291;BME280;21411;50.024;19.220;2023-04-04T00:37:09;99583.64;;;-0.04;100.00
35291;BME280;21411;50.024;19.220;2023-04-04T00:39:37;99583.71;;;-0.08;100.00
35291;BME280;21411;50.024;19.220;2023-04-04T00:42:04;99581.66;;;-0.12;100.00
35291;BME280;21411;50.024;19.220;2023-04-04T00:44:31;99588.16;;;-0.15;100.00
35291;BME280;21411;50.024;19.220;2023-04-04T00:46:58;99586.83;;;-0.18;100.00
35291;BME280;21411;50.024;19.220;2023-04-04T00:49:24;99586.19;;;-0.23;100.00
35291;BME280;21411;50.024;19.220;2023-04-04T00:51:51;99587.98;;;-0.27;100.00
35291;BME280;21411;50.024;19.220;2023-04-04T00:54:17;99590.65;;;-0.31;100.00
35291;BME280;21411;50.024;19.220;2023-04-04T00:56:44;99593.52;;;-0.36;100.00
35291;BME280;21411;50.024;19.220;2023-04-04T00:59:12;99596.20;;;-0.41;100.00
35291;BME280;21411;50.024;19.220;2023-04-04T01:01:38;99596.95;;;-0.45;100.00
35291;BME280;21411;50.024;19.220;2023-04-04T01:04:04;99594.38;;;-0.49;100.00
35291;BME280;21411;50.024;19.220;2023-04-04T01:06:31;99597.58;;;-0.53;100.00
35291;BME280;21411;50.024;19.220;2023-04-04T01:08:58;99600.40;;;-0.57;100.00
35291;BME280;21411;50.024;19.220;2023-04-04T01:11:25;99599.73;;;-0.59;100.00
35291;BME280;21411;50.024;19.220;2023-04-04T01:13:53;99595.59;;;-0.63;100.00
35291;BME280;21411;50.024;19.220;2023-04-04T01:16:20;99595.65;;;-0.68;100.00
35291;BME280;21411;50.024;19.220;2023-04-04T01:18:47;99599.34;;;-0.70;100.00
35291;BME280;21411;50.024;19.220;2023-04-04T01:21:15;99599.04;;;-0.74;100.00
35291;BME280;21411;50.024;19.220;2023-04-04T01:23:53;99598.53;;;-0.76;100.00
35291;BME280;21411;50.024;19.220;2023-04-04T01:26:24;99598.74;;;-0.79;100.00
35291;BME280;21411;50.024;19.220;2023-04-04T01:28:53;99595.63;;;-0.81;100.00
35291;BME280;21411;50.024;19.220;2023-04-04T01:31:38;99598.63;;;-0.85;100.00
35291;BME280;21411;50.024;19.220;2023-04-04T01:37:29;99600.83;;;-0.94;100.00
35291;BME280;21411;50.024;19.220;2023-04-04T01:40:24;99605.39;;;-0.96;100.00
35291;BME280;21411;50.024;19.220;2023-04-04T01:42:50;99604.54;;;-0.99;100.00
35291;BME280;21411;50.024;19.220;2023-04-04T01:45:17;99609.27;;;-1.02;100.00
35291;BME280;21411;50.024;19.220;2023-04-04T01:47:46;99609.30;;;-1.05;100.00
35291;BME280;21411;50.024;19.220;2023-04-04T01:50:13;99610.22;;;-1.08;100.00
35291;BME280;21411;50.024;19.220;2023-04-04T01:52:39;99610.20;;;-1.08;100.00
35291;BME280;21411;50.024;19.220;2023-04-04T01:55:06;99609.69;;;-1.07;100.00
35291;BME280;21411;50.024;19.220;2023-04-04T01:57:33;99611.26;;;-1.08;100.00
35291;BME280;21411;50.024;19.220;2023-04-04T02:00:00;99611.25;;;-1.08;100.00
35291;BME280;21411;50.024;19.220;2023-04-04T02:02:26;99612.12;;;-1.08;100.00
35291;BME280;21411;50.024;19.220;2023-04-04T02:04:53;99612.50;;;-1.10;100.00
35291;BME280;21411;50.024;19.220;2023-04-04T02:07:20;99614.95;;;-1.11;100.00
35291;BME280;21411;50.024;19.220;2023-04-04T02:09:46;99617.23;;;-1.11;100.00
35291;BME280;21411;50.024;19.220;2023-04-04T02:12:13;99612.16;;;-1.11;100.00
35291;BME280;21411;50.024;19.220;2023-04-04T02:14:39;99606.05;;;-1.11;100.00
35291;BME280;21411;50.024;19.220;2023-04-04T02:17:06;99611.99;;;-1.11;100.00
35291;BME280;21411;50.024;19.220;2023-04-04T02:19:32;99610.44;;;-1.13;100.00
35291;BME280;21411;50.024;19.220;2023-04-04T02:21:59;99611.86;;;-1.15;100.00
35291;BME280;21411;50.024;19.220;2023-04-04T02:24:26;99610.31;;;-1.18;100.00
35291;BME280;21411;50.024;19.220;2023-04-04T02:26:52;99613.47;;;-1.20;100.00
35291;BME280;21411;50.024;19.220;2023-04-04T02:29:19;99612.63;;;-1.24;100.00
35291;BME280;21411;50.024;19.220;2023-04-04T02:31:45;99607.61;;;-1.28;100.00
35291;BME280;21411;50.024;19.220;2023-04-04T02:34:12;99608.50;;;-1.30;100.00
35291;BME280;21411;50.024;19.220;2023-04-04T02:36:38;99607.47;;;-1.31;100.00
35291;BME280;21411;50.024;19.220;2023-04-04T02:39:05;99606.95;;;-1.33;100.00
35291;BME280;21411;50.024;19.220;2023-04-04T02:41:31;99605.77;;;-1.35;100.00
35291;BME280;21411;50.024;19.220;2023-04-04T02:43:58;99607.34;;;-1.36;100.00
35291;BME280;21411;50.024;19.220;2023-04-04T02:46:24;99615.20;;;-1.38;100.00
35291;BME280;21411;50.024;19.220;2023-04-04T02:48:51;99613.81;;;-1.39;100.00
35291;BME280;21411;50.024;19.220;2023-04-04T02:51:17;99610.86;;;-1.40;100.00
35291;BME280;21411;50.024;19.220;2023-04-04T02:53:44;99612.45;;;-1.42;100.00
35291;BME280;21411;50.024;19.220;2023-04-04T02:56:12;99611.95;;;-1.45;100.00
35291;BME280;21411;50.024;19.220;2023-04-04T02:58:39;99614.40;;;-1.48;100.00
35291;BME280;21411;50.024;19.220;2023-04-04T03:01:06;99612.69;;;-1.50;100.00
35291;BME280;21411;50.024;19.220;2023-04-04T03:03:32;99612.54;;;-1.53;100.00
35291;BME280;21411;50.024;19.220;2023-04-04T03:05:59;99609.42;;;-1.55;100.00
35291;BME280;21411;50.024;19.220;2023-04-04T03:08:26;99606.11;;;-1.56;100.00
35291;BME280;21411;50.024;19.220;2023-04-04T03:10:53;99605.25;;;-1.57;100.00
35291;BME280;21411;50.024;19.220;2023-04-04T03:13:19;99608.56;;;-1.58;100.00
35291;BME280;21411;50.024;19.220;2023-04-04T03:15:46;99607.17;;;-1.59;100.00
35291;BME280;21411;50.024;19.220;2023-04-04T03:18:12;99605.77;;;-1.58;100.00
35291;BME280;21411;50.024;19.220;2023-04-04T03:20:39;99604.73;;;-1.58;100.00
35291;BME280;21411;50.024;19.220;2023-04-04T03:23:05;99607.34;;;-1.57;100.00
35291;BME280;21411;50.024;19.220;2023-04-04T03:25:32;99610.31;;;-1.57;100.00
35291;BME280;21411;50.024;19.220;2023-04-04T03:28:07;99605.23;;;-1.56;100.00
35291;BME280;21411;50.024;19.220;2023-04-04T03:30:33;99608.38;;;-1.56;100.00
35291;BME280;21411;50.024;19.220;2023-04-04T03:33:03;99609.23;;;-1.54;100.00
35291;BME280;21411;50.024;19.220;2023-04-04T03:35:38;99605.73;;;-1.52;100.00
35291;BME280;21411;50.024;19.220;2023-04-04T03:38:05;99607.81;;;-1.51;100.00
35291;BME280;21411;50.024;19.220;2023-04-04T03:40:32;99610.07;;;-1.49;100.00
35291;BME280;21411;50.024;19.220;2023-04-04T03:42:59;99609.17;;;-1.47;100.00
35291;BME280;21411;50.024;19.220;2023-04-04T03:45:28;99602.91;;;-1.47;100.00
35291;BME280;21411;50.024;19.220;2023-04-04T03:47:57;99600.47;;;-1.47;100.00
35291;BME280;21411;50.024;19.220;2023-04-04T03:50:24;99598.02;;;-1.47;100.00
35291;BME280;21411;50.024;19.220;2023-04-04T03:52:50;99597.49;;;-1.46;100.00
35291;BME280;21411;50.024;19.220;2023-04-04T03:55:17;99600.11;;;-1.46;100.00
35291;BME280;21411;50.024;19.220;2023-04-04T03:57:43;99596.98;;;-1.46;100.00
35291;BME280;21411;50.024;19.220;2023-04-04T04:00:10;99593.13;;;-1.46;100.00
35291;BME280;21411;50.024;19.220;2023-04-04T04:02:37;99592.77;;;-1.45;100.00
35291;BME280;21411;50.024;19.220;2023-04-04T04:05:04;99591.39;;;-1.46;100.00
35291;BME280;21411;50.024;19.220;2023-04-04T04:07:30;99592.25;;;-1.46;100.00
35291;BME280;21411;50.024;19.220;2023-04-04T04:09:56;99591.05;;;-1.46;100.00
35291;BME280;21411;50.024;19.220;2023-04-04T04:12:23;99589.66;;;-1.46;100.00
35291;BME280;21411;50.024;19.220;2023-04-04T04:14:51;99587.75;;;-1.47;100.00
35291;BME280;21411;50.024;19.220;2023-04-04T04:17:18;99590.18;;;-1.47;100.00
35291;BME280;21411;50.024;19.220;2023-04-04T04:19:44;99593.14;;;-1.48;100.00
35291;BME280;21411;50.024;19.220;2023-04-04T04:22:11;99592.29;;;-1.47;100.00
35291;BME280;21411;50.024;19.220;2023-04-04T04:24:37;99592.83;;;-1.47;100.00
35291;BME280;21411;50.024;19.220;2023-04-04T04:27:04;99592.63;;;-1.46;100.00
35291;BME280;21411;50.024;19.220;2023-04-04T04:29:31;99589.30;;;-1.46;100.00
35291;BME280;21411;50.024;19.220;2023-04-04T04:31:57;99591.38;;;-1.46;100.00
35291;BME280;21411;50.024;19.220;2023-04-04T04:34:24;99592.25;;;-1.45;100.00
35291;BME280;21411;50.024;19.220;2023-04-04T04:36:51;99589.45;;;-1.44;100.00
35291;BME280;21411;50.024;19.220;2023-04-04T04:39:19;99586.83;;;-1.43;100.00
35291;BME280;21411;50.024;19.220;2023-04-04T04:41:45;99583.88;;;-1.42;100.00
35291;BME280;21411;50.024;19.220;2023-04-04T04:44:12;99585.41;;;-1.40;100.00
35291;BME280;21411;50.024;19.220;2023-04-04T04:46:38;99584.70;;;-1.38;100.00
35291;BME280;21411;50.024;19.220;2023-04-04T04:49:05;99583.28;;;-1.36;100.00
35291;BME280;21411;50.024;19.220;2023-04-04T04:51:31;99587.61;;;-1.33;100.00
35291;BME280;21411;50.024;19.220;2023-04-04T04:53:58;99588.98;;;-1.31;100.00
35291;BME280;21411;50.024;19.220;2023-04-04T04:56:24;99590.54;;;-1.29;100.00
35291;BME280;21411;50.024;19.220;2023-04-04T04:58:50;99587.03;;;-1.27;100.00
35291;BME280;21411;50.024;19.220;2023-04-04T05:01:17;99586.48;;;-1.24;100.00
35291;BME280;21411;50.024;19.220;2023-04-04T05:03:43;99590.30;;;-1.21;100.00
35291;BME280;21411;50.024;19.220;2023-04-04T05:06:10;99592.34;;;-1.17;100.00
35291;BME280;21411;50.024;19.220;2023-04-04T05:08:36;99595.77;;;-1.12;100.00
35291;BME280;21411;50.024;19.220;2023-04-04T05:11:03;99595.55;;;-1.06;100.00
35291;BME280;21411;50.024;19.220;2023-04-04T05:13:30;99594.63;;;-1.01;100.00
35291;BME280;21411;50.024;19.220;2023-04-04T05:15:56;99592.47;;;-0.95;100.00
35291;BME280;21411;50.024;19.220;2023-04-04T05:18:23;99588.74;;;-0.91;100.00
35291;BME280;21411;50.024;19.220;2023-04-04T05:20:53;99587.83;;;-0.85;100.00
35291;BME280;21411;50.024;19.220;2023-04-04T05:23:21;99588.84;;;-0.82;100.00
35291;BME280;21411;50.024;19.220;2023-04-04T05:25:48;99591.08;;;-0.80;100.00
35291;BME280;21411;50.024;19.220;2023-04-04T05:28:16;99595.20;;;-0.74;100.00
35291;BME280;21411;50.024;19.220;2023-04-04T05:30:43;99593.20;;;-0.66;100.00
35291;BME280;21411;50.024;19.220;2023-04-04T05:33:09;99594.00;;;-0.61;100.00
35291;BME280;21411;50.024;19.220;2023-04-04T05:35:36;99594.83;;;-0.57;100.00
35291;BME280;21411;50.024;19.220;2023-04-04T05:38:02;99597.20;;;-0.51;100.00
35291;BME280;21411;50.024;19.220;2023-04-04T05:40:29;99601.48;;;-0.46;100.00
35291;BME280;21411;50.024;19.220;2023-04-04T05:42:56;99602.97;;;-0.39;100.00
35291;BME280;21411;50.024;19.220;2023-04-04T05:45:24;99606.57;;;-0.34;100.00
35291;BME280;21411;50.024;19.220;2023-04-04T05:47:51;99607.19;;;-0.27;100.00
35291;BME280;21411;50.024;19.220;2023-04-04T05:50:17;99609.73;;;-0.22;100.00
35291;BME280;21411;50.024;19.220;2023-04-04T05:52:45;99609.52;;;-0.18;100.00
35291;BME280;21411;50.024;19.220;2023-04-04T05:55:12;99606.98;;;-0.12;100.00
35291;BME280;21411;50.024;19.220;2023-04-04T05:57:49;99609.18;;;-0.07;100.00
35291;BME280;21411;50.024;19.220;2023-04-04T06:00:19;99607.55;;;-0.02;100.00
35291;BME280;21411;50.024;19.220;2023-04-04T06:02:45;99604.77;;;-0.03;100.00
35291;BME280;21411;50.024;19.220;2023-04-04T06:05:12;99610.58;;;-0.07;100.00
35291;BME280;21411;50.024;19.220;2023-04-04T06:07:38;99611.09;;;-0.06;100.00
35291;BME280;21411;50.024;19.220;2023-04-04T06:10:05;99613.83;;;-0.02;100.00
35291;BME280;21411;50.024;19.220;2023-04-04T06:12:34;99607.42;;;0.06;100.00
35291;BME280;21411;50.024;19.220;2023-04-04T06:15:00;99610.08;;;0.16;100.00
35291;BME280;21411;50.024;19.220;2023-04-04T06:17:27;99616.73;;;0.27;100.00
35291;BME280;21411;50.024;19.220;2023-04-04T06:19:53;99616.21;;;0.27;99.82
35291;BME280;21411;50.024;19.220;2023-04-04T06:22:20;99618.92;;;0.33;99.68
35291;BME280;21411;50.024;19.220;2023-04-04T06:24:47;99613.19;;;0.41;98.12
35291;BME280;21411;50.024;19.220;2023-04-04T06:27:13;99612.93;;;0.47;98.14
35291;BME280;21411;50.024;19.220;2023-04-04T06:29:39;99615.23;;;0.54;98.41
35291;BME280;21411;50.024;19.220;2023-04-04T06:32:12;99612.98;;;0.65;97.64
35291;BME280;21411;50.024;19.220;2023-04-04T06:34:41;99613.83;;;0.77;97.03
35291;BME280;21411;50.024;19.220;2023-04-04T06:37:08;99614.20;;;0.85;96.31
35291;BME280;21411;50.024;19.220;2023-04-04T06:39:35;99609.67;;;0.84;95.68
35291;BME280;21411;50.024;19.220;2023-04-04T06:42:01;99611.21;;;0.86;95.19
35291;BME280;21411;50.024;19.220;2023-04-04T06:44:28;99608.94;;;0.96;94.61
35291;BME280;21411;50.024;19.220;2023-04-04T06:46:54;99611.20;;;1.06;93.93
35291;BME280;21411;50.024;19.220;2023-04-04T06:49:21;99610.91;;;1.13;92.81
35291;BME280;21411;50.024;19.220;2023-04-04T06:51:47;99608.20;;;1.27;90.82
35291;BME280;21411;50.024;19.220;2023-04-04T06:54:16;99609.05;;;1.37;88.78
35291;BME280;21411;50.024;19.220;2023-04-04T06:56:42;99610.55;;;1.41;88.40
35291;BME280;21411;50.024;19.220;2023-04-04T06:59:09;99603.14;;;1.52;88.48
35291;BME280;21411;50.024;19.220;2023-04-04T07:01:37;99597.48;;;1.72;88.61
35291;BME280;21411;50.024;19.220;2023-04-04T07:04:03;99597.95;;;1.82;87.32
35291;BME280;21411;50.024;19.220;2023-04-04T07:06:30;99596.21;;;1.73;86.58
35291;BME280;21411;50.024;19.220;2023-04-04T07:08:56;99596.24;;;1.72;84.90
35291;BME280;21411;50.024;19.220;2023-04-04T07:11:23;99592.69;;;1.66;83.55
35291;BME280;21411;50.024;19.220;2023-04-04T07:13:49;99590.65;;;1.55;83.28
35291;BME280;21411;50.024;19.220;2023-04-04T07:16:16;99591.56;;;1.44;82.94
35291;BME280;21411;50.024;19.220;2023-04-04T07:18:42;99595.57;;;1.37;83.26
35291;BME280;21411;50.024;19.220;2023-04-04T07:21:09;99599.29;;;1.34;83.32
35291;BME280;21411;50.024;19.220;2023-04-04T07:23:36;99597.00;;;1.35;83.59
35291;BME280;21411;50.024;19.220;2023-04-04T07:26:02;99597.44;;;1.39;83.52
35291;BME280;21411;50.024;19.220;2023-04-04T07:28:29;99594.50;;;1.46;82.69
35291;BME280;21411;50.024;19.220;2023-04-04T07:30:59;99593.95;;;1.47;82.00
35291;BME280;21411;50.024;19.220;2023-04-04T07:33:27;99595.55;;;1.45;81.20
35291;BME280;21411;50.024;19.220;2023-04-04T07:35:53;99598.78;;;1.42;80.09
35291;BME280;21411;50.024;19.220;2023-04-04T07:38:20;99595.16;;;1.40;80.20
35291;BME280;21411;50.024;19.220;2023-04-04T07:40:48;99598.63;;;1.41;79.95
35291;BME280;21411;50.024;19.220;2023-04-04T07:43:15;99600.02;;;1.43;79.90
35291;BME280;21411;50.024;19.220;2023-04-04T07:45:41;99596.73;;;1.48;79.98
35291;BME280;21411;50.024;19.220;2023-04-04T07:48:08;99596.39;;;1.57;79.94
35291;BME280;21411;50.024;19.220;2023-04-04T07:50:34;99591.31;;;1.64;79.48
35291;BME280;21411;50.024;19.220;2023-04-04T07:53:01;99593.22;;;1.74;79.94
35291;BME280;21411;50.024;19.220;2023-04-04T07:55:27;99594.77;;;1.84;78.58
35291;BME280;21411;50.024;19.220;2023-04-04T07:57:54;99594.05;;;1.92;79.04
35291;BME280;21411;50.024;19.220;2023-04-04T08:00:20;99588.02;;;2.03;78.92
35291;BME280;21411;50.024;19.220;2023-04-04T08:02:52;99588.14;;;2.13;78.08
35291;BME280;21411;50.024;19.220;2023-04-04T08:05:19;99585.96;;;2.17;77.91
35291;BME280;21411;50.024;19.220;2023-04-04T08:07:46;99585.25;;;2.25;78.25
35291;BME280;21411;50.024;19.220;2023-04-04T08:10:13;99581.33;;;2.35;77.86
35291;BME280;21411;50.024;19.220;2023-04-04T08:12:42;99578.17;;;2.49;78.42
35291;BME280;21411;50.024;19.220;2023-04-04T08:15:11;99580.88;;;2.67;76.41
35291;BME280;21411;50.024;19.220;2023-04-04T08:17:37;99581.73;;;2.74;75.83
35291;BME280;21411;50.024;19.220;2023-04-04T08:20:04;99576.23;;;2.77;75.87
35291;BME280;21411;50.024;19.220;2023-04-04T08:22:31;99571.33;;;2.90;75.10
35291;BME280;21411;50.024;19.220;2023-04-04T08:24:58;99578.69;;;3.03;74.61
35291;BME280;21411;50.024;19.220;2023-04-04T08:27:25;99569.30;;;3.19;73.70
35291;BME280;21411;50.024;19.220;2023-04-04T08:29:52;99574.59;;;3.38;72.92
35291;BME280;21411;50.024;19.220;2023-04-04T08:32:19;99577.46;;;3.42;71.83
35291;BME280;21411;50.024;19.220;2023-04-04T08:34:45;99573.38;;;3.31;70.48
35291;BME280;21411;50.024;19.220;2023-04-04T08:37:12;99567.40;;;3.25;70.30
35291;BME280;21411;50.024;19.220;2023-04-04T08:39:38;99564.45;;;3.48;70.35
35291;BME280;21411;50.024;19.220;2023-04-04T08:42:06;99561.48;;;3.60;66.06
35291;BME280;21411;50.024;19.220;2023-04-04T08:44:33;99558.52;;;3.71;63.18
35291;BME280;21411;50.024;19.220;2023-04-04T08:47:02;99552.09;;;3.97;63.24
35291;BME280;21411;50.024;19.220;2023-04-04T08:49:34;99549.34;;;4.01;62.10
35291;BME280;21411;50.024;19.220;2023-04-04T08:52:02;99553.02;;;3.85;62.77
35291;BME280;21411;50.024;19.220;2023-04-04T08:54:33;99550.54;;;3.91;63.71
35291;BME280;21411;50.024;19.220;2023-04-04T08:57:00;99549.08;;;4.09;62.05
35291;BME280;21411;50.024;19.220;2023-04-04T08:59:27;99553.73;;;4.17;61.55
35291;BME280;21411;50.024;19.220;2023-04-04T09:02:01;99548.92;;;4.09;61.22
35291;BME280;21411;50.024;19.220;2023-04-04T09:04:30;99549.19;;;4.06;61.89
35291;BME280;21411;50.024;19.220;2023-04-04T09:06:57;99550.69;;;4.20;61.46
35291;BME280;21411;50.024;19.220;2023-04-04T09:09:26;99548.98;;;4.29;60.75
35291;BME280;21411;50.024;19.220;2023-04-04T09:11:53;99543.98;;;4.47;60.38
35291;BME280;21411;50.024;19.220;2023-04-04T09:14:20;99544.67;;;4.47;58.11
35291;BME280;21411;50.024;19.220;2023-04-04T09:16:47;99551.95;;;4.41;57.42
35291;BME280;21411;50.024;19.220;2023-04-04T09:19:13;99548.50;;;4.38;58.21
35291;BME280;21411;50.024;19.220;2023-04-04T09:21:45;99551.46;;;4.45;58.37
35291;BME280;21411;50.024;19.220;2023-04-04T09:24:12;99551.82;;;4.55;58.51
35291;BME280;21411;50.024;19.220;2023-04-04T09:26:48;99544.15;;;4.73;58.46
35291;BME280;21411;50.024;19.220;2023-04-04T09:29:20;99544.62;;;4.90;57.73
35291;BME280;21411;50.024;19.220;2023-04-04T09:31:47;99541.70;;;4.99;57.21
35291;BME280;21411;50.024;19.220;2023-04-04T09:34:16;99549.16;;;5.12;56.67
35291;BME280;21411;50.024;19.220;2023-04-04T09:36:44;99545.94;;;5.23;56.18
35291;BME280;21411;50.024;19.220;2023-04-04T09:39:12;99543.84;;;5.27;56.20
35291;BME280;21411;50.024;19.220;2023-04-04T09:41:38;99549.64;;;5.27;55.41
35291;BME280;21411;50.024;19.220;2023-04-04T09:44:05;99546.89;;;5.26;55.22
35291;BME280;21411;50.024;19.220;2023-04-04T09:46:32;99545.23;;;5.18;55.45
35291;BME280;21411;50.024;19.220;2023-04-04T09:49:02;99542.52;;;5.15;55.76
35291;BME280;21411;50.024;19.220;2023-04-04T09:51:33;99543.05;;;5.10;55.09
35291;BME280;21411;50.024;19.220;2023-04-04T09:54:03;99540.23;;;5.01;55.13
35291;BME280;21411;50.024;19.220;2023-04-04T09:56:32;99537.48;;;5.18;55.49
35291;BME280;21411;50.024;19.220;2023-04-04T09:58:59;99528.69;;;5.37;54.54
35291;BME280;21411;50.024;19.220;2023-04-04T10:01:27;99528.30;;;5.38;54.62
35291;BME280;21411;50.024;19.220;2023-04-04T10:03:54;99536.00;;;5.39;54.13
35291;BME280;21411;50.024;19.220;2023-04-04T10:06:21;99532.76;;;5.37;54.00
35291;BME280;21411;50.024;19.220;2023-04-04T10:08:48;99533.41;;;5.23;54.20
35291;BME280;21411;50.024;19.220;2023-04-04T10:11:28;99531.59;;;5.06;53.67
35291;BME280;21411;50.024;19.220;2023-04-04T10:13:56;99541.89;;;4.78;53.29
35291;BME280;21411;50.024;19.220;2023-04-04T10:16:23;99532.83;;;4.65;54.03
35291;BME280;21411;50.024;19.220;2023-04-04T10:18:51;99533.78;;;4.73;54.58
35291;BME280;21411;50.024;19.220;2023-04-04T10:21:18;99533.48;;;4.91;53.69
35291;BME280;21411;50.024;19.220;2023-04-04T10:23:45;99525.01;;;5.02;53.51
35291;BME280;21411;50.024;19.220;2023-04-04T10:26:13;99516.23;;;5.21;53.58
35291;BME280;21411;50.024;19.220;2023-04-04T10:28:41;99519.80;;;5.29;52.51
35291;BME280;21411;50.024;19.220;2023-04-04T10:31:21;99521.15;;;5.16;52.64
35291;BME280;21411;50.024;19.220;2023-04-04T10:39:25;99522.91;;;4.92;52.43
35291;BME280;21411;50.024;19.220;2023-04-04T10:41:54;99516.45;;;5.05;52.25
35291;BME280;21411;50.024;19.220;2023-04-04T10:46:55;99511.76;;;5.65;51.93
35291;BME280;21411;50.024;19.220;2023-04-04T10:49:24;99512.35;;;5.63;51.10
35291;BME280;21411;50.024;19.220;2023-04-04T10:51:51;99510.02;;;5.55;50.48
35291;BME280;21411;50.024;19.220;2023-04-04T10:54:19;99504.66;;;5.48;50.22
35291;BME280;21411;50.024;19.220;2023-04-04T10:56:46;99505.12;;;5.50;50.87
35291;BME280;21411;50.024;19.220;2023-04-04T10:59:15;99501.00;;;5.60;50.81
35291;BME280;21411;50.024;19.220;2023-04-04T11:01:46;99501.27;;;5.53;49.87
35291;BME280;21411;50.024;19.220;2023-04-04T11:04:17;99498.33;;;5.38;50.09
35291;BME280;21411;50.024;19.220;2023-04-04T11:07:07;99497.77;;;5.24;49.64
35291;BME280;21411;50.024;19.220;2023-04-04T11:09:53;99493.93;;;5.09;49.48
35291;BME280;21411;50.024;19.220;2023-04-04T11:12:28;99494.75;;;5.26;50.18
35291;BME280;21411;50.024;19.220;2023-04-04T11:17:56;99492.16;;;5.66;49.51
35291;BME280;21411;50.024;19.220;2023-04-04T11:20:34;99499.10;;;5.78;49.25
35291;BME280;21411;50.024;19.220;2023-04-04T11:23:09;99491.48;;;5.79;49.66
35291;BME280;21411;50.024;19.220;2023-04-04T11:25:40;99493.80;;;5.73;49.32
35291;BME280;21411;50.024;19.220;2023-04-04T11:28:11;99491.26;;;5.67;48.79
35291;BME280;21411;50.024;19.220;2023-04-04T11:30:42;99492.27;;;5.63;48.57
35291;BME280;21411;50.024;19.220;2023-04-04T11:33:25;99487.23;;;5.66;49.41
35291;BME280;21411;50.024;19.220;2023-04-04T11:35:57;99487.31;;;5.64;48.39
35291;BME280;21411;50.024;19.220;2023-04-04T11:42:12;99484.88;;;5.76;50.37
35291;BME280;21411;50.024;19.220;2023-04-04T11:44:41;99485.55;;;5.90;49.64
35291;BME280;21411;50.024;19.220;2023-04-04T11:47:11;99484.92;;;5.88;49.66
35291;BME280;21411;50.024;19.220;2023-04-04T11:49:42;99481.45;;;5.87;49.62
35291;BME280;21411;50.024;19.220;2023-04-04T11:52:11;99482.81;;;5.84;49.02
35291;BME280;21411;50.024;19.220;2023-04-04T11:54:39;99488.02;;;5.86;49.69
35291;BME280;21411;50.024;19.220;2023-04-04T11:57:16;99485.92;;;5.94;50.20
35291;BME280;21411;50.024;19.220;2023-04-04T11:59:47;99487.27;;;6.10;50.32
35291;BME280;21411;50.024;19.220;2023-04-04T12:02:23;99488.35;;;6.09;49.53
35291;BME280;21411;50.024;19.220;2023-04-04T12:05:10;99488.75;;;6.13;49.44
35291;BME280;21411;50.024;19.220;2023-04-04T12:07:37;99491.14;;;6.19;48.94
35291;BME280;21411;50.024;19.220;2023-04-04T12:10:04;99487.11;;;6.22;49.29
35291;BME280;21411;50.024;19.220;2023-04-04T12:12:36;99487.98;;;6.27;49.64
35291;BME280;21411;50.024;19.220;2023-04-04T12:15:06;99491.22;;;6.21;48.63
35291;BME280;21411;50.024;19.220;2023-04-04T12:17:38;99495.02;;;6.06;48.56
35291;BME280;21411;50.024;19.220;2023-04-04T12:20:05;99489.52;;;5.93;48.83
35291;BME280;21411;50.024;19.220;2023-04-04T12:22:36;99486.27;;;5.90;49.27
35291;BME280;21411;50.024;19.220;2023-04-04T12:25:03;99488.17;;;5.91;49.38
35291;BME280;21411;50.024;19.220;2023-04-04T12:27:31;99490.95;;;5.88;48.99
35291;BME280;21411;50.024;19.220;2023-04-04T12:29:59;99489.95;;;5.82;49.38
35291;BME280;21411;50.024;19.220;2023-04-04T12:32:26;99494.23;;;5.85;49.62
35291;BME280;21411;50.024;19.220;2023-04-04T12:34:59;99489.48;;;5.89;49.63
35291;BME280;21411;50.024;19.220;2023-04-04T12:37:27;99488.88;;;5.91;49.45
35291;BME280;21411;50.024;19.220;2023-04-04T12:39:55;99492.68;;;5.94;49.08
35291;BME280;21411;50.024;19.220;2023-04-04T12:42:23;99494.12;;;5.83;48.58
35291;BME280;21411;50.024;19.220;2023-04-04T12:44:51;99486.23;;;5.78;49.29
35291;BME280;21411;50.024;19.220;2023-04-04T12:47:18;99484.83;;;5.82;49.58
35291;BME280;21411;50.024;19.220;2023-04-04T12:49:47;99485.30;;;5.79;49.27
35291;BME280;21411;50.024;19.220;2023-04-04T12:52:22;99488.52;;;5.69;49.25
35291;BME280;21411;50.024;19.220;2023-04-04T12:54:52;99495.52;;;5.61;49.62
35291;BME280;21411;50.024;19.220;2023-04-04T12:57:23;99491.27;;;5.57;49.73
35291;BME280;21411;50.024;19.220;2023-04-04T12:59:53;99491.92;;;5.49;49.57
35291;BME280;21411;50.024;19.220;2023-04-04T13:02:21;99490.88;;;5.40;49.73
35291;BME280;21411;50.024;19.220;2023-04-04T13:04:53;99490.26;;;5.37;49.69
35291;BME280;21411;50.024;19.220;2023-04-04T13:07:27;99490.22;;;5.52;49.97
35291;BME280;21411;50.024;19.220;2023-04-04T13:09:57;99486.88;;;5.62;49.64
35291;BME280;21411;50.024;19.220;2023-04-04T13:12:23;99485.77;;;5.67;49.20